Yogi — DJ5464 — position and weather

sailwx.info

Track history (hours):
 
Tides and Currents Weather Stations Pressure Air Temp Water Temp Dewpoint Dewpoint Depression Visibility Wind Speed Wind Dir Waves Ship Positions

Yogi

Last reported at 2014-Jul-20 09:07 UTC. Time now 2014-Jul-22 15:27 UTC.
Position N 54°29' E 013°07'.

Length 11 m.

Type: Sailing vessel. MMSI: 211330220.

Date/timePositionNaut miles runAvg speedWind from/ knotsBaromVisibWave heightAir tempDewpointWater temp
2014-Jul-20 09:07N 54°29' E 013°07'4 6.8
2014-Jul-20 08:33N 54°25' E 013°06'6 6.2
2014-Jul-20 07:33N 54°19' E 013°07'0 0.2
2014-Jul-20 06:31N 54°19' E 013°07'  
2014-Jul-16 18:31N 54°19' E 013°07'0 0.0
2014-Jul-14 19:33N 54°19' E 013°07'0 0.0
2014-Jul-13 15:33N 54°19' E 013°07'0 0.0
2014-Jul-13 14:33N 54°19' E 013°07'0 0.0
2014-Jul-13 13:33N 54°19' E 013°07'0 0.0
2014-Jul-13 12:33N 54°19' E 013°07'0 0.0
2014-Jul-13 11:33N 54°19' E 013°07'0 0.4
2014-Jul-13 10:33N 54°18' E 013°07'2 2.4
2014-Jul-13 09:33N 54°17' E 013°10'1 1.3
2014-Jul-13 08:31N 54°18' E 013°12'0 0.0
2014-Jul-12 21:19N 54°18' E 013°12'0 0.0
2014-Jul-12 20:31N 54°18' E 013°12'0 0.0
2014-Jul-12 19:31N 54°18' E 013°12'0 0.0
2014-Jul-12 18:31N 54°18' E 013°12'0 0.0
2014-Jul-12 17:19N 54°18' E 013°12'0 0.0
2014-Jul-12 16:31N 54°18' E 013°12'0 0.0
2014-Jul-12 15:25N 54°18' E 013°12'3 3.9
2014-Jul-12 14:31N 54°15' E 013°15'4 4.3
2014-Jul-12 13:33N 54°13' E 013°22'  
Track history (hours):
 
Tides and Currents Weather Stations Pressure Air Temp Water Temp Dewpoint Dewpoint Depression Visibility Wind Speed Wind Dir Waves Ship Positions

Yogi

Last reported at 2014-Jul-20 09:07 UTC. Time now 2014-Jul-22 15:27 UTC.
Position N 54°29' E 013°07'.

Length 11 m.

Type: Sailing vessel. MMSI: 211330220.

Date/timePositionNaut miles runAvg speedWind from/ knotsBaromVisibWave heightAir tempDewpointWater temp
2014-Jul-20 09:07N 54°29' E 013°07'4 6.8
2014-Jul-20 08:33N 54°25' E 013°06'6 6.2
2014-Jul-20 07:33N 54°19' E 013°07'0 0.2
2014-Jul-20 06:31N 54°19' E 013°07'  
2014-Jul-16 18:31N 54°19' E 013°07'0 0.0
2014-Jul-14 19:33N 54°19' E 013°07'0 0.0
2014-Jul-13 15:33N 54°19' E 013°07'0 0.0
2014-Jul-13 14:33N 54°19' E 013°07'0 0.0
2014-Jul-13 13:33N 54°19' E 013°07'0 0.0
2014-Jul-13 12:33N 54°19' E 013°07'0 0.0
2014-Jul-13 11:33N 54°19' E 013°07'0 0.4
2014-Jul-13 10:33N 54°18' E 013°07'2 2.4
2014-Jul-13 09:33N 54°17' E 013°10'1 1.3
2014-Jul-13 08:31N 54°18' E 013°12'0 0.0
2014-Jul-12 21:19N 54°18' E 013°12'0 0.0
2014-Jul-12 20:31N 54°18' E 013°12'0 0.0
2014-Jul-12 19:31N 54°18' E 013°12'0 0.0
2014-Jul-12 18:31N 54°18' E 013°12'0 0.0
2014-Jul-12 17:19N 54°18' E 013°12'0 0.0
2014-Jul-12 16:31N 54°18' E 013°12'0 0.0
2014-Jul-12 15:25N 54°18' E 013°12'3 3.9
2014-Jul-12 14:31N 54°15' E 013°15'4 4.3
2014-Jul-12 13:33N 54°13' E 013°22'  

Dump ship's entire track history